sensor_id;sensor_type;location;lat;lon;timestamp;pressure;altitude;pressure_sealevel;temperature;humidity
26807;BME280;14380;49.910;6.792;2023-05-31T00:01:18;99371.81;;;14.07;95.63
26807;BME280;14380;49.910;6.792;2023-05-31T00:03:46;99368.31;;;14.06;95.18
26807;BME280;14380;49.910;6.792;2023-05-31T00:06:13;99372.41;;;14.12;94.57
26807;BME280;14380;49.910;6.792;2023-05-31T00:08:40;99371.66;;;14.24;94.31
26807;BME280;14380;49.910;6.792;2023-05-31T00:11:07;99370.91;;;14.22;93.63
26807;BME280;14380;49.910;6.792;2023-05-31T00:13:34;99362.09;;;14.36;93.36
26807;BME280;14380;49.910;6.792;2023-05-31T00:16:01;99367.50;;;14.49;92.53
26807;BME280;14380;49.910;6.792;2023-05-31T00:18:28;99376.66;;;14.74;91.29
26807;BME280;14380;49.910;6.792;2023-05-31T00:20:56;99364.53;;;14.68;90.29
26807;BME280;14380;49.910;6.792;2023-05-31T00:23:23;99374.34;;;14.68;91.92
26807;BME280;14380;49.910;6.792;2023-05-31T00:25:50;99371.97;;;14.78;89.47
26807;BME280;14380;49.910;6.792;2023-05-31T00:28:16;99370.91;;;14.80;88.88
26807;BME280;14380;49.910;6.792;2023-05-31T00:30:43;99364.06;;;14.91;89.67
26807;BME280;14380;49.910;6.792;2023-05-31T00:33:11;99367.78;;;14.88;89.03
26807;BME280;14380;49.910;6.792;2023-05-31T00:35:38;99374.31;;;14.97;88.15
26807;BME280;14380;49.910;6.792;2023-05-31T00:38:06;99372.63;;;14.96;88.45
26807;BME280;14380;49.910;6.792;2023-05-31T00:40:34;99370.06;;;14.94;88.22
26807;BME280;14380;49.910;6.792;2023-05-31T00:43:01;99378.00;;;15.09;87.34
26807;BME280;14380;49.910;6.792;2023-05-31T00:45:27;99373.38;;;14.98;87.90
26807;BME280;14380;49.910;6.792;2023-05-31T00:47:55;99381.09;;;14.88;88.69
26807;BME280;14380;49.910;6.792;2023-05-31T00:50:22;99368.16;;;14.96;87.43
26807;BME280;14380;49.910;6.792;2023-05-31T00:52:50;99369.97;;;14.96;87.93
26807;BME280;14380;49.910;6.792;2023-05-31T00:55:19;99366.09;;;14.87;88.50
26807;BME280;14380;49.910;6.792;2023-05-31T00:57:46;99371.03;;;14.79;88.25
26807;BME280;14380;49.910;6.792;2023-05-31T01:00:14;99374.53;;;14.94;87.73
26807;BME280;14380;49.910;6.792;2023-05-31T01:02:41;99368.16;;;14.96;87.20
26807;BME280;14380;49.910;6.792;2023-05-31T01:05:08;99364.41;;;15.13;87.34
26807;BME280;14380;49.910;6.792;2023-05-31T01:07:36;99365.50;;;14.96;87.61
26807;BME280;14380;49.910;6.792;2023-05-31T01:10:04;99367.53;;;14.78;88.34
26807;BME280;14380;49.910;6.792;2023-05-31T01:12:40;99368.63;;;15.03;86.85
26807;BME280;14380;49.910;6.792;2023-05-31T01:15:11;99368.06;;;14.98;86.92
26807;BME280;14380;49.910;6.792;2023-05-31T01:17:45;99367.34;;;15.09;86.68
26807;BME280;14380;49.910;6.792;2023-05-31T01:20:16;99367.59;;;14.91;87.84
26807;BME280;14380;49.910;6.792;2023-05-31T01:22:51;99361.59;;;14.87;89.15
26807;BME280;14380;49.910;6.792;2023-05-31T01:25:26;99360.97;;;14.69;89.33
26807;BME280;14380;49.910;6.792;2023-05-31T01:28:00;99349.75;;;14.50;90.30
26807;BME280;14380;49.910;6.792;2023-05-31T01:30:29;99359.16;;;14.55;90.95
26807;BME280;14380;49.910;6.792;2023-05-31T01:32:58;99354.22;;;14.20;92.86
26807;BME280;14380;49.910;6.792;2023-05-31T01:35:26;99354.59;;;14.28;92.82
26807;BME280;14380;49.910;6.792;2023-05-31T01:37:53;99344.78;;;14.15;94.49
26807;BME280;14380;49.910;6.792;2023-05-31T01:40:20;99354.72;;;13.96;95.27
26807;BME280;14380;49.910;6.792;2023-05-31T01:42:48;99349.59;;;13.93;94.99
26807;BME280;14380;49.910;6.792;2023-05-31T01:45:17;99352.25;;;13.93;95.79
26807;BME280;14380;49.910;6.792;2023-05-31T01:47:46;99352.56;;;14.03;94.88
26807;BME280;14380;49.910;6.792;2023-05-31T01:50:14;99355.34;;;14.16;92.86
26807;BME280;14380;49.910;6.792;2023-05-31T01:52:41;99362.25;;;14.04;94.32
26807;BME280;14380;49.910;6.792;2023-05-31T01:55:08;99367.22;;;13.94;94.57
26807;BME280;14380;49.910;6.792;2023-05-31T01:57:37;99364.22;;;13.70;97.37
26807;BME280;14380;49.910;6.792;2023-05-31T02:00:06;99362.13;;;13.61;97.06
26807;BME280;14380;49.910;6.792;2023-05-31T02:02:38;99363.03;;;13.76;95.41
26807;BME280;14380;49.910;6.792;2023-05-31T02:05:07;99363.75;;;13.63;97.10
26807;BME280;14380;49.910;6.792;2023-05-31T02:07:36;99362.66;;;13.51;98.21
26807;BME280;14380;49.910;6.792;2023-05-31T02:10:04;99367.34;;;13.62;97.68
26807;BME280;14380;49.910;6.792;2023-05-31T02:12:31;99361.09;;;13.63;96.16
26807;BME280;14380;49.910;6.792;2023-05-31T02:14:57;99362.34;;;13.72;97.13
26807;BME280;14380;49.910;6.792;2023-05-31T02:17:24;99363.09;;;13.90;95.78
26807;BME280;14380;49.910;6.792;2023-05-31T02:19:52;99358.66;;;13.75;96.48
26807;BME280;14380;49.910;6.792;2023-05-31T02:22:19;99365.22;;;13.53;98.26
26807;BME280;14380;49.910;6.792;2023-05-31T02:24:46;99364.72;;;13.46;99.25
26807;BME280;14380;49.910;6.792;2023-05-31T02:27:13;99370.03;;;13.30;100.00
26807;BME280;14380;49.910;6.792;2023-05-31T02:29:40;99370.88;;;13.31;100.00
26807;BME280;14380;49.910;6.792;2023-05-31T02:32:07;99369.94;;;13.16;100.00
26807;BME280;14380;49.910;6.792;2023-05-31T02:34:33;99371.56;;;13.18;100.00
26807;BME280;14380;49.910;6.792;2023-05-31T02:37:02;99379.59;;;13.01;100.00
26807;BME280;14380;49.910;6.792;2023-05-31T02:39:29;99375.22;;;12.68;100.00
26807;BME280;14380;49.910;6.792;2023-05-31T02:41:55;99384.69;;;12.56;100.00
26807;BME280;14380;49.910;6.792;2023-05-31T02:44:22;99376.97;;;12.51;100.00
26807;BME280;14380;49.910;6.792;2023-05-31T02:46:48;99379.09;;;12.44;100.00
26807;BME280;14380;49.910;6.792;2023-05-31T02:49:16;99382.22;;;12.35;100.00
26807;BME280;14380;49.910;6.792;2023-05-31T02:51:42;99383.91;;;12.20;100.00
26807;BME280;14380;49.910;6.792;2023-05-31T02:54:10;99366.53;;;12.14;100.00
26807;BME280;14380;49.910;6.792;2023-05-31T02:56:37;99377.66;;;12.03;100.00
26807;BME280;14380;49.910;6.792;2023-05-31T02:59:03;99388.09;;;11.89;100.00
26807;BME280;14380;49.910;6.792;2023-05-31T03:01:30;99389.63;;;11.93;100.00
26807;BME280;14380;49.910;6.792;2023-05-31T03:03:57;99383.41;;;11.94;100.00
26807;BME280;14380;49.910;6.792;2023-05-31T03:06:23;99381.31;;;11.66;100.00
26807;BME280;14380;49.910;6.792;2023-05-31T03:08:50;99388.63;;;11.60;100.00
26807;BME280;14380;49.910;6.792;2023-05-31T03:11:18;99382.59;;;11.57;100.00
26807;BME280;14380;49.910;6.792;2023-05-31T03:13:44;99381.31;;;11.66;100.00
26807;BME280;14380;49.910;6.792;2023-05-31T03:16:11;99383.09;;;11.65;100.00
26807;BME280;14380;49.910;6.792;2023-05-31T03:18:37;99384.56;;;11.53;100.00
26807;BME280;14380;49.910;6.792;2023-05-31T03:21:04;99382.59;;;11.57;100.00
26807;BME280;14380;49.910;6.792;2023-05-31T03:23:31;99386.38;;;11.34;100.00
26807;BME280;14380;49.910;6.792;2023-05-31T03:25:57;99378.56;;;11.67;100.00
26807;BME280;14380;49.910;6.792;2023-05-31T03:28:25;99382.78;;;11.35;100.00
26807;BME280;14380;49.910;6.792;2023-05-31T03:30:51;99389.63;;;11.21;100.00
26807;BME280;14380;49.910;6.792;2023-05-31T03:33:18;99386.50;;;11.30;100.00
26807;BME280;14380;49.910;6.792;2023-05-31T03:35:44;99388.88;;;11.37;100.00
26807;BME280;14380;49.910;6.792;2023-05-31T03:38:11;99384.00;;;11.27;100.00
26807;BME280;14380;49.910;6.792;2023-05-31T03:40:38;99378.38;;;11.53;100.00
26807;BME280;14380;49.910;6.792;2023-05-31T03:43:05;99389.34;;;11.45;100.00
26807;BME280;14380;49.910;6.792;2023-05-31T03:45:33;99384.81;;;11.29;100.00
26807;BME280;14380;49.910;6.792;2023-05-31T03:47:59;99385.59;;;11.31;100.00
26807;BME280;14380;49.910;6.792;2023-05-31T03:50:26;99382.28;;;11.45;100.00
26807;BME280;14380;49.910;6.792;2023-05-31T03:52:53;99380.94;;;11.37;100.00
26807;BME280;14380;49.910;6.792;2023-05-31T03:55:19;99381.50;;;11.43;100.00
26807;BME280;14380;49.910;6.792;2023-05-31T03:57:46;99390.38;;;11.42;100.00
26807;BME280;14380;49.910;6.792;2023-05-31T04:00:14;99384.72;;;11.68;100.00
26807;BME280;14380;49.910;6.792;2023-05-31T04:02:42;99380.47;;;11.83;100.00
26807;BME280;14380;49.910;6.792;2023-05-31T04:05:08;99386.59;;;12.18;100.00
26807;BME280;14380;49.910;6.792;2023-05-31T04:07:36;99388.88;;;12.26;100.00
26807;BME280;14380;49.910;6.792;2023-05-31T04:10:02;99388.22;;;12.72;100.00
26807;BME280;14380;49.910;6.792;2023-05-31T04:12:29;99395.03;;;12.60;100.00
26807;BME280;14380;49.910;6.792;2023-05-31T04:14:56;99396.59;;;12.81;100.00
26807;BME280;14380;49.910;6.792;2023-05-31T04:17:23;99397.53;;;12.79;100.00
26807;BME280;14380;49.910;6.792;2023-05-31T04:19:51;99390.75;;;13.23;100.00
26807;BME280;14380;49.910;6.792;2023-05-31T04:22:18;99397.34;;;13.79;100.00
26807;BME280;14380;49.910;6.792;2023-05-31T04:24:45;99391.63;;;14.01;100.00
26807;BME280;14380;49.910;6.792;2023-05-31T04:27:12;99389.59;;;14.35;100.00
26807;BME280;14380;49.910;6.792;2023-05-31T04:29:43;99399.56;;;13.87;100.00
26807;BME280;14380;49.910;6.792;2023-05-31T04:32:11;99392.50;;;14.76;100.00
26807;BME280;14380;49.910;6.792;2023-05-31T04:34:40;99398.94;;;15.00;99.15
26807;BME280;14380;49.910;6.792;2023-05-31T04:37:08;99390.72;;;15.18;99.46
26807;BME280;14380;49.910;6.792;2023-05-31T04:39:35;99398.81;;;15.16;98.20
26807;BME280;14380;49.910;6.792;2023-05-31T04:42:02;99394.53;;;15.41;97.18
26807;BME280;14380;49.910;6.792;2023-05-31T04:44:30;99391.56;;;15.46;96.11
26807;BME280;14380;49.910;6.792;2023-05-31T04:46:58;99383.16;;;15.80;93.97
26807;BME280;14380;49.910;6.792;2023-05-31T04:49:24;99381.88;;;16.39;92.39
26807;BME280;14380;49.910;6.792;2023-05-31T04:51:52;99383.69;;;16.38;92.04
26807;BME280;14380;49.910;6.792;2023-05-31T04:54:20;99384.53;;;16.64;90.83
26807;BME280;14380;49.910;6.792;2023-05-31T04:56:47;99380.28;;;16.36;90.51
26807;BME280;14380;49.910;6.792;2023-05-31T04:59:14;99385.41;;;16.52;89.91
26807;BME280;14380;49.910;6.792;2023-05-31T05:01:40;99373.78;;;16.40;90.13
26807;BME280;14380;49.910;6.792;2023-05-31T05:04:07;99380.41;;;16.34;91.17
26807;BME280;14380;49.910;6.792;2023-05-31T05:06:33;99385.38;;;16.39;89.97
26807;BME280;14380;49.910;6.792;2023-05-31T05:09:03;99386.34;;;16.77;90.00
26807;BME280;14380;49.910;6.792;2023-05-31T05:11:31;99390.38;;;16.83;90.04
26807;BME280;14380;49.910;6.792;2023-05-31T05:13:57;99381.31;;;16.98;87.31
26807;BME280;14380;49.910;6.792;2023-05-31T05:16:24;99377.84;;;17.09;87.86
26807;BME280;14380;49.910;6.792;2023-05-31T05:18:51;99374.91;;;16.75;88.25
26807;BME280;14380;49.910;6.792;2023-05-31T05:21:18;99377.13;;;17.07;86.65
26807;BME280;14380;49.910;6.792;2023-05-31T05:23:44;99388.50;;;17.22;85.86
26807;BME280;14380;49.910;6.792;2023-05-31T05:26:12;99387.16;;;17.41;86.05
26807;BME280;14380;49.910;6.792;2023-05-31T05:28:40;99388.19;;;17.51;86.44
26807;BME280;14380;49.910;6.792;2023-05-31T05:31:07;99390.16;;;17.60;85.20
26807;BME280;14380;49.910;6.792;2023-05-31T05:33:33;99395.28;;;17.39;85.55
26807;BME280;14380;49.910;6.792;2023-05-31T05:36:00;99401.22;;;17.91;84.61
26807;BME280;14380;49.910;6.792;2023-05-31T05:38:27;99389.03;;;18.11;84.07
26807;BME280;14380;49.910;6.792;2023-05-31T05:40:54;99402.28;;;17.89;84.97
26807;BME280;14380;49.910;6.792;2023-05-31T05:43:20;99403.28;;;17.63;84.43
26807;BME280;14380;49.910;6.792;2023-05-31T05:45:49;99399.69;;;17.76;84.55
26807;BME280;14380;49.910;6.792;2023-05-31T05:48:15;99408.75;;;18.33;82.31
26807;BME280;14380;49.910;6.792;2023-05-31T05:50:42;99411.22;;;18.48;81.25
26807;BME280;14380;49.910;6.792;2023-05-31T05:53:09;99410.13;;;18.39;80.55
26807;BME280;14380;49.910;6.792;2023-05-31T05:55:36;99404.19;;;18.11;81.80
26807;BME280;14380;49.910;6.792;2023-05-31T05:58:03;99405.31;;;18.08;80.94
26807;BME280;14380;49.910;6.792;2023-05-31T06:00:30;99412.75;;;18.27;82.39
26807;BME280;14380;49.910;6.792;2023-05-31T06:03:00;99406.47;;;18.40;81.68
26807;BME280;14380;49.910;6.792;2023-05-31T06:05:27;99406.13;;;18.56;81.47
26807;BME280;14380;49.910;6.792;2023-05-31T06:07:56;99408.34;;;18.73;79.29
26807;BME280;14380;49.910;6.792;2023-05-31T06:10:26;99410.63;;;18.67;81.26
26807;BME280;14380;49.910;6.792;2023-05-31T06:12:54;99406.38;;;18.64;80.42
26807;BME280;14380;49.910;6.792;2023-05-31T06:15:21;99410.84;;;18.41;79.96
26807;BME280;14380;49.910;6.792;2023-05-31T06:17:47;99425.19;;;18.40;79.54
26807;BME280;14380;49.910;6.792;2023-05-31T06:20:16;99412.56;;;18.65;80.43
26807;BME280;14380;49.910;6.792;2023-05-31T06:22:43;99408.63;;;18.23;79.93
26807;BME280;14380;49.910;6.792;2023-05-31T06:25:10;99411.69;;;18.41;81.29
26807;BME280;14380;49.910;6.792;2023-05-31T06:27:38;99411.84;;;18.63;80.85
26807;BME280;14380;49.910;6.792;2023-05-31T06:30:06;99412.81;;;18.73;78.16
26807;BME280;14380;49.910;6.792;2023-05-31T06:32:35;99424.78;;;18.22;79.40
26807;BME280;14380;49.910;6.792;2023-05-31T06:35:02;99425.44;;;18.60;77.61
26807;BME280;14380;49.910;6.792;2023-05-31T06:37:30;99409.75;;;18.78;78.85
26807;BME280;14380;49.910;6.792;2023-05-31T06:39:57;99413.03;;;18.36;77.90
26807;BME280;14380;49.910;6.792;2023-05-31T06:42:24;99419.63;;;18.66;78.97
26807;BME280;14380;49.910;6.792;2023-05-31T06:44:51;99406.13;;;18.79;78.82
26807;BME280;14380;49.910;6.792;2023-05-31T06:47:18;99413.41;;;18.77;75.83
26807;BME280;14380;49.910;6.792;2023-05-31T06:49:45;99411.75;;;19.10;76.53
26807;BME280;14380;49.910;6.792;2023-05-31T06:52:12;99412.47;;;19.00;76.60
26807;BME280;14380;49.910;6.792;2023-05-31T06:54:42;99411.38;;;19.14;76.03
26807;BME280;14380;49.910;6.792;2023-05-31T06:57:09;99407.22;;;19.10;75.29
26807;BME280;14380;49.910;6.792;2023-05-31T06:59:36;99409.91;;;19.10;75.62
26807;BME280;14380;49.910;6.792;2023-05-31T07:02:03;99400.88;;;19.34;75.30
26807;BME280;14380;49.910;6.792;2023-05-31T07:04:30;99406.47;;;19.31;75.27
26807;BME280;14380;49.910;6.792;2023-05-31T07:06:57;99399.97;;;19.45;76.77
26807;BME280;14380;49.910;6.792;2023-05-31T07:09:23;99394.81;;;19.97;76.61
26807;BME280;14380;49.910;6.792;2023-05-31T07:11:52;99391.94;;;19.45;73.85
26807;BME280;14380;49.910;6.792;2023-05-31T07:14:19;99392.28;;;19.52;73.34
26807;BME280;14380;49.910;6.792;2023-05-31T07:16:47;99391.03;;;19.67;76.22
26807;BME280;14380;49.910;6.792;2023-05-31T07:19:13;99390.72;;;19.49;74.49
26807;BME280;14380;49.910;6.792;2023-05-31T07:21:40;99388.72;;;20.16;73.57
26807;BME280;14380;49.910;6.792;2023-05-31T07:24:07;99387.38;;;20.22;75.90
26807;BME280;14380;49.910;6.792;2023-05-31T07:26:35;99389.06;;;20.02;72.73
26807;BME280;14380;49.910;6.792;2023-05-31T07:29:03;99385.56;;;20.32;73.93
26807;BME280;14380;49.910;6.792;2023-05-31T07:31:30;99386.91;;;19.96;70.87
26807;BME280;14380;49.910;6.792;2023-05-31T07:33:57;99385.72;;;20.31;73.59
26807;BME280;14380;49.910;6.792;2023-05-31T07:36:23;99384.31;;;20.58;73.05
26807;BME280;14380;49.910;6.792;2023-05-31T07:38:52;99378.31;;;20.44;70.78
26807;BME280;14380;49.910;6.792;2023-05-31T07:41:18;99377.00;;;20.39;70.53
26807;BME280;14380;49.910;6.792;2023-05-31T07:43:46;99373.94;;;20.43;70.92
26807;BME280;14380;49.910;6.792;2023-05-31T07:46:39;99376.69;;;20.84;71.05
26807;BME280;14380;49.910;6.792;2023-05-31T07:49:05;99375.41;;;20.78;71.27
26807;BME280;14380;49.910;6.792;2023-05-31T07:51:32;99377.28;;;20.98;72.89
26807;BME280;14380;49.910;6.792;2023-05-31T07:53:59;99374.63;;;20.98;67.83
26807;BME280;14380;49.910;6.792;2023-05-31T07:56:26;99367.34;;;21.19;67.38
26807;BME280;14380;49.910;6.792;2023-05-31T07:58:53;99368.72;;;20.73;67.84
26807;BME280;14380;49.910;6.792;2023-05-31T08:01:19;99368.28;;;21.08;69.22
26807;BME280;14380;49.910;6.792;2023-05-31T08:03:48;99368.09;;;21.00;67.10
26807;BME280;14380;49.910;6.792;2023-05-31T08:06:16;99362.44;;;20.93;66.22
26807;BME280;14380;49.910;6.792;2023-05-31T08:08:43;99356.38;;;21.62;71.57
26807;BME280;14380;49.910;6.792;2023-05-31T08:11:10;99363.38;;;21.53;65.88
26807;BME280;14380;49.910;6.792;2023-05-31T08:13:38;99365.66;;;21.48;65.76
26807;BME280;14380;49.910;6.792;2023-05-31T08:16:05;99356.44;;;21.31;63.72
26807;BME280;14380;49.910;6.792;2023-05-31T08:18:32;99358.69;;;21.16;65.09
26807;BME280;14380;49.910;6.792;2023-05-31T08:21:00;99352.66;;;21.43;65.82
26807;BME280;14380;49.910;6.792;2023-05-31T08:23:28;99357.47;;;21.59;64.62
26807;BME280;14380;49.910;6.792;2023-05-31T08:25:54;99339.22;;;21.92;65.42
26807;BME280;14380;49.910;6.792;2023-05-31T08:31:43;99340.22;;;22.01;67.29
26807;BME280;14380;49.910;6.792;2023-05-31T08:34:09;99344.47;;;21.94;64.58
26807;BME280;14380;49.910;6.792;2023-05-31T08:36:39;99339.22;;;21.92;66.51
26807;BME280;14380;49.910;6.792;2023-05-31T08:39:06;99341.78;;;21.74;65.56
26807;BME280;14380;49.910;6.792;2023-05-31T08:41:38;99330.59;;;21.89;63.82
26807;BME280;14380;49.910;6.792;2023-05-31T08:44:09;99334.34;;;22.16;63.83
26807;BME280;14380;49.910;6.792;2023-05-31T08:46:36;99341.78;;;21.84;61.73
26807;BME280;14380;49.910;6.792;2023-05-31T08:49:08;99337.94;;;22.06;63.28
26807;BME280;14380;49.910;6.792;2023-05-31T08:51:36;99333.16;;;21.80;61.39
26807;BME280;14380;49.910;6.792;2023-05-31T08:54:06;99322.59;;;22.17;61.07
26807;BME280;14380;49.910;6.792;2023-05-31T08:56:33;99321.59;;;22.18;62.56
26807;BME280;14380;49.910;6.792;2023-05-31T08:59:00;99327.56;;;22.21;62.09
26807;BME280;14380;49.910;6.792;2023-05-31T09:01:28;99320.47;;;22.20;61.51
26807;BME280;14380;49.910;6.792;2023-05-31T09:03:56;99326.56;;;22.70;63.24
26807;BME280;14380;49.910;6.792;2023-05-31T09:06:22;99317.03;;;22.76;61.98
26807;BME280;14380;49.910;6.792;2023-05-31T09:08:49;99318.78;;;22.67;60.25
26807;BME280;14380;49.910;6.792;2023-05-31T09:11:16;99316.22;;;22.93;62.75
26807;BME280;14380;49.910;6.792;2023-05-31T09:13:43;99319.66;;;22.85;60.51
26807;BME280;14380;49.910;6.792;2023-05-31T09:16:10;99308.84;;;22.67;62.36
26807;BME280;14380;49.910;6.792;2023-05-31T09:18:37;99311.47;;;22.77;60.26
26807;BME280;14380;49.910;6.792;2023-05-31T09:21:08;99303.28;;;22.97;59.86
26807;BME280;14380;49.910;6.792;2023-05-31T09:23:35;99319.53;;;22.87;60.53
26807;BME280;14380;49.910;6.792;2023-05-31T09:26:05;99302.13;;;22.53;59.43
26807;BME280;14380;49.910;6.792;2023-05-31T09:28:33;99290.69;;;22.69;59.42
26807;BME280;14380;49.910;6.792;2023-05-31T09:31:01;99298.75;;;22.97;59.78
26807;BME280;14380;49.910;6.792;2023-05-31T09:33:38;99292.03;;;22.83;60.86
26807;BME280;14380;49.910;6.792;2023-05-31T09:36:06;99317.63;;;22.69;59.27
26807;BME280;14380;49.910;6.792;2023-05-31T09:38:34;99301.53;;;23.06;58.90
26807;BME280;14380;49.910;6.792;2023-05-31T09:41:14;99299.31;;;23.19;60.44
26807;BME280;14380;49.910;6.792;2023-05-31T09:43:44;99287.50;;;23.30;58.38
26807;BME280;14380;49.910;6.792;2023-05-31T09:46:12;99293.81;;;23.57;58.15
26807;BME280;14380;49.910;6.792;2023-05-31T09:48:38;99287.34;;;23.50;57.34
26807;BME280;14380;49.910;6.792;2023-05-31T09:51:08;99295.25;;;23.51;56.64
26807;BME280;14380;49.910;6.792;2023-05-31T09:53:39;99288.34;;;23.93;58.32
26807;BME280;14380;49.910;6.792;2023-05-31T09:56:10;99293.22;;;23.17;54.76
26807;BME280;14380;49.910;6.792;2023-05-31T09:58:38;99285.66;;;23.02;55.19
26807;BME280;14380;49.910;6.792;2023-05-31T10:01:07;99288.72;;;23.54;55.88
26807;BME280;14380;49.910;6.792;2023-05-31T10:03:35;99282.34;;;23.55;57.18
26807;BME280;14380;49.910;6.792;2023-05-31T10:06:02;99275.16;;;23.90;57.43
26807;BME280;14380;49.910;6.792;2023-05-31T10:08:29;99270.09;;;23.24;54.82
26807;BME280;14380;49.910;6.792;2023-05-31T10:10:58;99281.16;;;23.57;54.93
26807;BME280;14380;49.910;6.792;2023-05-31T10:13:27;99281.41;;;23.28;55.13
26807;BME280;14380;49.910;6.792;2023-05-31T10:15:54;99286.56;;;23.39;57.35
26807;BME280;14380;49.910;6.792;2023-05-31T10:18:27;99276.31;;;23.87;55.41
26807;BME280;14380;49.910;6.792;2023-05-31T10:20:57;99282.69;;;23.42;56.36
26807;BME280;14380;49.910;6.792;2023-05-31T10:23:25;99269.41;;;23.40;53.83
26807;BME280;14380;49.910;6.792;2023-05-31T10:25:57;99273.22;;;23.74;55.89
26807;BME280;14380;49.910;6.792;2023-05-31T10:28:27;99275.78;;;23.84;54.92
26807;BME280;14380;49.910;6.792;2023-05-31T10:30:54;99270.38;;;24.02;56.83
26807;BME280;14380;49.910;6.792;2023-05-31T10:33:26;99272.59;;;24.06;57.09
26807;BME280;14380;49.910;6.792;2023-05-31T10:35:56;99258.13;;;24.85;55.11
26807;BME280;14380;49.910;6.792;2023-05-31T10:38:28;99256.88;;;24.71;57.09
26807;BME280;14380;49.910;6.792;2023-05-31T10:41:01;99272.56;;;24.33;56.22
26807;BME280;14380;49.910;6.792;2023-05-31T10:43:34;99260.00;;;24.50;56.55
26807;BME280;14380;49.910;6.792;2023-05-31T10:46:06;99267.47;;;24.22;54.58
26807;BME280;14380;49.910;6.792;2023-05-31T10:48:43;99266.00;;;24.01;54.76
26807;BME280;14380;49.910;6.792;2023-05-31T10:51:11;99270.31;;;24.20;55.56
26807;BME280;14380;49.910;6.792;2023-05-31T10:53:40;99257.72;;;24.37;53.79
26807;BME280;14380;49.910;6.792;2023-05-31T10:56:10;99254.72;;;24.75;55.60
26807;BME280;14380;49.910;6.792;2023-05-31T10:58:41;99258.63;;;24.46;54.69
26807;BME280;14380;49.910;6.792;2023-05-31T11:01:10;99261.88;;;24.23;55.76
26807;BME280;14380;49.910;6.792;2023-05-31T11:03:45;99247.56;;;24.23;55.73
26807;BME280;14380;49.910;6.792;2023-05-31T11:06:13;99251.81;;;24.33;56.93
26807;BME280;14380;49.910;6.792;2023-05-31T11:08:55;99247.69;;;24.56;58.30
26807;BME280;14380;49.910;6.792;2023-05-31T11:11:27;99247.53;;;24.14;56.20
26807;BME280;14380;49.910;6.792;2023-05-31T11:13:55;99248.53;;;24.48;56.24
26807;BME280;14380;49.910;6.792;2023-05-31T11:16:22;99245.25;;;24.79;58.20
26807;BME280;14380;49.910;6.792;2023-05-31T11:19:01;99246.03;;;24.63;54.79
26807;BME280;14380;49.910;6.792;2023-05-31T11:21:48;99247.72;;;24.21;56.51
26807;BME280;14380;49.910;6.792;2023-05-31T11:24:27;99241.44;;;24.55;54.64
26807;BME280;14380;49.910;6.792;2023-05-31T11:26:56;99241.56;;;24.80;55.79
26807;BME280;14380;49.910;6.792;2023-05-31T11:29:22;99243.72;;;24.76;54.92
26807;BME280;14380;49.910;6.792;2023-05-31T11:31:56;99238.66;;;24.73;55.23
26807;BME280;14380;49.910;6.792;2023-05-31T11:34:26;99252.88;;;24.41;54.05
26807;BME280;14380;49.910;6.792;2023-05-31T11:36:53;99244.81;;;24.57;55.19
26807;BME280;14380;49.910;6.792;2023-05-31T11:39:20;99233.00;;;24.50;53.73
26807;BME280;14380;49.910;6.792;2023-05-31T11:41:47;99241.09;;;24.50;54.69
26807;BME280;14380;49.910;6.792;2023-05-31T11:44:14;99237.72;;;24.56;55.84
26807;BME280;14380;49.910;6.792;2023-05-31T11:46:46;99227.44;;;25.69;55.87
26807;BME280;14380;49.910;6.792;2023-05-31T11:49:13;99236.16;;;24.97;53.24
26807;BME280;14380;49.910;6.792;2023-05-31T11:51:43;99221.47;;;24.91;53.42
26807;BME280;14380;49.910;6.792;2023-05-31T11:54:10;99208.78;;;24.75;52.45
26807;BME280;14380;49.910;6.792;2023-05-31T11:56:39;99205.81;;;25.36;53.75
26807;BME280;14380;49.910;6.792;2023-05-31T11:59:06;99226.38;;;25.04;54.15
26807;BME280;14380;49.910;6.792;2023-05-31T12:01:37;99204.13;;;25.18;53.01
26807;BME280;14380;49.910;6.792;2023-05-31T12:04:05;99218.47;;;25.19;52.61
26807;BME280;14380;49.910;6.792;2023-05-31T12:06:32;99204.81;;;25.37;51.23
26807;BME280;14380;49.910;6.792;2023-05-31T12:09:00;99193.63;;;25.65;52.40
26807;BME280;14380;49.910;6.792;2023-05-31T12:11:27;99196.81;;;25.77;52.81
26807;BME280;14380;49.910;6.792;2023-05-31T12:13:54;99195.34;;;25.24;51.77
26807;BME280;14380;49.910;6.792;2023-05-31T12:16:21;99195.50;;;24.98;53.61
26807;BME280;14380;49.910;6.792;2023-05-31T12:18:47;99196.34;;;25.23;51.88
26807;BME280;14380;49.910;6.792;2023-05-31T12:21:15;99181.00;;;24.40;51.16
26807;BME280;14380;49.910;6.792;2023-05-31T12:23:52;99188.56;;;25.12;51.32
26807;BME280;14380;49.910;6.792;2023-05-31T12:26:21;99192.13;;;25.13;50.55
26807;BME280;14380;49.910;6.792;2023-05-31T12:28:48;99186.91;;;25.36;52.90
26807;BME280;14380;49.910;6.792;2023-05-31T12:31:21;99175.03;;;25.70;52.18
26807;BME280;14380;49.910;6.792;2023-05-31T12:33:57;99170.91;;;25.91;50.43
26807;BME280;14380;49.910;6.792;2023-05-31T12:36:25;99179.13;;;26.14;50.59
26807;BME280;14380;49.910;6.792;2023-05-31T12:38:53;99174.53;;;25.42;51.47
26807;BME280;14380;49.910;6.792;2023-05-31T12:41:22;99171.44;;;25.78;50.10
26807;BME280;14380;49.910;6.792;2023-05-31T12:43:48;99164.00;;;25.80;51.17
26807;BME280;14380;49.910;6.792;2023-05-31T12:46:18;99160.03;;;26.07;51.26
26807;BME280;14380;49.910;6.792;2023-05-31T12:48:47;99164.47;;;25.92;50.31
26807;BME280;14380;49.910;6.792;2023-05-31T12:51:19;99162.09;;;25.89;50.11
26807;BME280;14380;49.910;6.792;2023-05-31T12:53:46;99166.03;;;25.78;49.36
26807;BME280;14380;49.910;6.792;2023-05-31T12:56:12;99168.41;;;26.29;50.94
26807;BME280;14380;49.910;6.792;2023-05-31T12:58:40;99166.63;;;26.13;49.07
26807;BME280;14380;49.910;6.792;2023-05-31T13:01:07;99160.81;;;26.24;50.59
26807;BME280;14380;49.910;6.792;2023-05-31T13:03:33;99154.19;;;26.58;50.75
26807;BME280;14380;49.910;6.792;2023-05-31T13:06:00;99145.53;;;25.92;47.79